sensor_id;sensor_type;location;lat;lon;timestamp;temperature;humidity
37412;DHT22;23278;52.110;6.050;2023-07-13T00:01:30;16.10;93.60
37412;DHT22;23278;52.110;6.050;2023-07-13T00:03:57;16.00;93.90
37412;DHT22;23278;52.110;6.050;2023-07-13T00:06:23;16.00;94.30
37412;DHT22;23278;52.110;6.050;2023-07-13T00:08:49;16.00;94.60
37412;DHT22;23278;52.110;6.050;2023-07-13T00:11:16;16.00;95.00
37412;DHT22;23278;52.110;6.050;2023-07-13T00:13:43;15.90;95.30
37412;DHT22;23278;52.110;6.050;2023-07-13T00:16:11;15.90;95.60
37412;DHT22;23278;52.110;6.050;2023-07-13T00:18:37;15.90;95.80
37412;DHT22;23278;52.110;6.050;2023-07-13T00:21:03;15.80;96.10
37412;DHT22;23278;52.110;6.050;2023-07-13T00:23:37;15.80;96.50
37412;DHT22;23278;52.110;6.050;2023-07-13T00:26:06;15.70;96.80
37412;DHT22;23278;52.110;6.050;2023-07-13T00:28:32;15.70;97.10
37412;DHT22;23278;52.110;6.050;2023-07-13T00:30:58;15.70;97.30
37412;DHT22;23278;52.110;6.050;2023-07-13T00:33:24;15.60;97.60
37412;DHT22;23278;52.110;6.050;2023-07-13T00:35:50;15.60;97.90
37412;DHT22;23278;52.110;6.050;2023-07-13T00:38:16;15.60;98.10
37412;DHT22;23278;52.110;6.050;2023-07-13T00:40:42;15.60;98.20
37412;DHT22;23278;52.110;6.050;2023-07-13T00:43:18;15.60;98.40
37412;DHT22;23278;52.110;6.050;2023-07-13T00:48:12;15.60;98.60
37412;DHT22;23278;52.110;6.050;2023-07-13T00:50:40;15.60;98.70
37412;DHT22;23278;52.110;6.050;2023-07-13T00:53:07;15.60;98.60
37412;DHT22;23278;52.110;6.050;2023-07-13T00:55:34;15.60;98.80
37412;DHT22;23278;52.110;6.050;2023-07-13T00:58:01;15.60;98.80
37412;DHT22;23278;52.110;6.050;2023-07-13T01:00:29;15.60;99.10
37412;DHT22;23278;52.110;6.050;2023-07-13T01:02:55;15.60;99.10
37412;DHT22;23278;52.110;6.050;2023-07-13T01:05:24;15.50;99.20
37412;DHT22;23278;52.110;6.050;2023-07-13T01:07:51;15.50;99.30
37412;DHT22;23278;52.110;6.050;2023-07-13T01:10:21;15.50;99.40
37412;DHT22;23278;52.110;6.050;2023-07-13T01:12:48;15.40;99.40
37412;DHT22;23278;52.110;6.050;2023-07-13T01:15:37;15.50;99.60
37412;DHT22;23278;52.110;6.050;2023-07-13T01:18:05;15.40;99.70
37412;DHT22;23278;52.110;6.050;2023-07-13T01:20:32;15.40;99.60
37412;DHT22;23278;52.110;6.050;2023-07-13T01:23:10;15.40;99.80
37412;DHT22;23278;52.110;6.050;2023-07-13T01:25:37;15.40;99.90
37412;DHT22;23278;52.110;6.050;2023-07-13T01:28:05;15.40;99.90
37412;DHT22;23278;52.110;6.050;2023-07-13T01:30:31;15.30;99.90
37412;DHT22;23278;52.110;6.050;2023-07-13T01:32:58;15.30;99.90
37412;DHT22;23278;52.110;6.050;2023-07-13T01:35:26;15.30;99.90
37412;DHT22;23278;52.110;6.050;2023-07-13T01:37:53;15.30;99.90
37412;DHT22;23278;52.110;6.050;2023-07-13T01:40:20;15.30;99.90
37412;DHT22;23278;52.110;6.050;2023-07-13T01:42:46;15.20;99.90
37412;DHT22;23278;52.110;6.050;2023-07-13T01:45:12;15.20;99.90
37412;DHT22;23278;52.110;6.050;2023-07-13T01:47:38;15.20;99.90
37412;DHT22;23278;52.110;6.050;2023-07-13T01:50:04;15.20;99.90
37412;DHT22;23278;52.110;6.050;2023-07-13T01:52:30;15.10;99.90
37412;DHT22;23278;52.110;6.050;2023-07-13T01:54:58;15.10;99.90
37412;DHT22;23278;52.110;6.050;2023-07-13T01:57:23;15.10;99.90
37412;DHT22;23278;52.110;6.050;2023-07-13T01:59:49;15.10;99.90
37412;DHT22;23278;52.110;6.050;2023-07-13T02:02:16;15.10;99.90
37412;DHT22;23278;52.110;6.050;2023-07-13T02:04:42;15.10;99.90
37412;DHT22;23278;52.110;6.050;2023-07-13T02:07:09;15.10;99.90
37412;DHT22;23278;52.110;6.050;2023-07-13T02:09:35;15.10;99.90
37412;DHT22;23278;52.110;6.050;2023-07-13T02:12:01;15.10;99.90
37412;DHT22;23278;52.110;6.050;2023-07-13T02:14:32;15.10;99.90
37412;DHT22;23278;52.110;6.050;2023-07-13T02:16:58;15.10;99.90
37412;DHT22;23278;52.110;6.050;2023-07-13T02:19:24;15.00;99.90
37412;DHT22;23278;52.110;6.050;2023-07-13T02:21:50;14.90;99.90
37412;DHT22;23278;52.110;6.050;2023-07-13T02:24:16;14.90;99.90
37412;DHT22;23278;52.110;6.050;2023-07-13T02:26:44;14.90;99.90
37412;DHT22;23278;52.110;6.050;2023-07-13T02:29:10;14.90;99.90
37412;DHT22;23278;52.110;6.050;2023-07-13T02:31:37;14.90;99.90
37412;DHT22;23278;52.110;6.050;2023-07-13T02:34:03;14.90;99.90
37412;DHT22;23278;52.110;6.050;2023-07-13T02:36:30;14.90;99.90
37412;DHT22;23278;52.110;6.050;2023-07-13T02:39:00;14.90;99.90
37412;DHT22;23278;52.110;6.050;2023-07-13T02:41:26;14.90;99.90
37412;DHT22;23278;52.110;6.050;2023-07-13T02:43:52;14.90;99.90
37412;DHT22;23278;52.110;6.050;2023-07-13T02:46:18;14.90;99.90
37412;DHT22;23278;52.110;6.050;2023-07-13T02:48:45;14.90;99.90
37412;DHT22;23278;52.110;6.050;2023-07-13T02:51:13;14.90;99.90
37412;DHT22;23278;52.110;6.050;2023-07-13T02:53:39;14.80;99.90
37412;DHT22;23278;52.110;6.050;2023-07-13T02:56:05;14.80;99.90
37412;DHT22;23278;52.110;6.050;2023-07-13T02:58:31;14.80;99.90
37412;DHT22;23278;52.110;6.050;2023-07-13T03:00:57;14.80;99.90
37412;DHT22;23278;52.110;6.050;2023-07-13T03:03:24;14.80;99.90
37412;DHT22;23278;52.110;6.050;2023-07-13T03:05:59;14.80;99.90
37412;DHT22;23278;52.110;6.050;2023-07-13T03:08:27;14.70;99.90
37412;DHT22;23278;52.110;6.050;2023-07-13T03:11:05;14.70;99.90
37412;DHT22;23278;52.110;6.050;2023-07-13T03:13:34;14.70;99.90
37412;DHT22;23278;52.110;6.050;2023-07-13T03:16:02;14.70;99.90
37412;DHT22;23278;52.110;6.050;2023-07-13T03:18:28;14.70;99.90
37412;DHT22;23278;52.110;6.050;2023-07-13T03:20:56;14.70;99.90
37412;DHT22;23278;52.110;6.050;2023-07-13T03:23:23;14.60;99.90
37412;DHT22;23278;52.110;6.050;2023-07-13T03:26:00;14.60;99.90
37412;DHT22;23278;52.110;6.050;2023-07-13T03:28:28;14.60;99.90
37412;DHT22;23278;52.110;6.050;2023-07-13T03:31:08;14.60;99.90
37412;DHT22;23278;52.110;6.050;2023-07-13T03:33:34;14.60;99.90
37412;DHT22;23278;52.110;6.050;2023-07-13T03:36:02;14.50;99.90
37412;DHT22;23278;52.110;6.050;2023-07-13T03:38:28;14.60;99.90
37412;DHT22;23278;52.110;6.050;2023-07-13T03:40:55;14.50;99.90
37412;DHT22;23278;52.110;6.050;2023-07-13T03:43:22;14.50;99.90
37412;DHT22;23278;52.110;6.050;2023-07-13T03:45:48;14.50;99.90
37412;DHT22;23278;52.110;6.050;2023-07-13T03:48:14;14.50;99.90
37412;DHT22;23278;52.110;6.050;2023-07-13T03:50:41;14.50;99.90
37412;DHT22;23278;52.110;6.050;2023-07-13T03:53:07;14.50;99.90
37412;DHT22;23278;52.110;6.050;2023-07-13T03:55:33;14.50;99.90
37412;DHT22;23278;52.110;6.050;2023-07-13T04:00:47;14.40;99.90
37412;DHT22;23278;52.110;6.050;2023-07-13T04:03:13;14.40;99.90
37412;DHT22;23278;52.110;6.050;2023-07-13T04:05:39;14.40;99.90
37412;DHT22;23278;52.110;6.050;2023-07-13T04:08:06;14.40;99.90
37412;DHT22;23278;52.110;6.050;2023-07-13T04:10:33;14.40;99.90
37412;DHT22;23278;52.110;6.050;2023-07-13T04:12:59;14.40;99.90
37412;DHT22;23278;52.110;6.050;2023-07-13T04:15:25;14.40;99.90
37412;DHT22;23278;52.110;6.050;2023-07-13T04:17:50;14.40;99.90
37412;DHT22;23278;52.110;6.050;2023-07-13T04:20:16;14.40;99.90
37412;DHT22;23278;52.110;6.050;2023-07-13T04:22:42;14.40;99.90
37412;DHT22;23278;52.110;6.050;2023-07-13T04:25:08;14.40;99.90
37412;DHT22;23278;52.110;6.050;2023-07-13T04:27:34;14.50;99.90
37412;DHT22;23278;52.110;6.050;2023-07-13T04:30:00;14.50;99.90
37412;DHT22;23278;52.110;6.050;2023-07-13T04:32:26;14.50;99.90
37412;DHT22;23278;52.110;6.050;2023-07-13T04:34:52;14.50;99.90
37412;DHT22;23278;52.110;6.050;2023-07-13T04:37:20;14.50;99.90
37412;DHT22;23278;52.110;6.050;2023-07-13T04:39:46;14.60;99.90
37412;DHT22;23278;52.110;6.050;2023-07-13T04:42:12;14.50;99.90
37412;DHT22;23278;52.110;6.050;2023-07-13T04:44:38;14.60;99.90
37412;DHT22;23278;52.110;6.050;2023-07-13T04:47:04;14.70;99.90
37412;DHT22;23278;52.110;6.050;2023-07-13T04:49:30;14.70;99.90
37412;DHT22;23278;52.110;6.050;2023-07-13T04:51:56;14.70;99.90
37412;DHT22;23278;52.110;6.050;2023-07-13T04:54:22;14.70;99.90
37412;DHT22;23278;52.110;6.050;2023-07-13T04:56:48;14.80;99.90
37412;DHT22;23278;52.110;6.050;2023-07-13T04:59:14;14.80;99.90
37412;DHT22;23278;52.110;6.050;2023-07-13T05:01:40;14.80;99.90
37412;DHT22;23278;52.110;6.050;2023-07-13T05:04:06;14.80;99.90
37412;DHT22;23278;52.110;6.050;2023-07-13T05:06:32;14.90;99.90
37412;DHT22;23278;52.110;6.050;2023-07-13T05:08:58;14.90;99.90
37412;DHT22;23278;52.110;6.050;2023-07-13T05:11:24;14.90;99.90
37412;DHT22;23278;52.110;6.050;2023-07-13T05:13:50;15.00;99.90
37412;DHT22;23278;52.110;6.050;2023-07-13T05:16:16;15.00;99.90
37412;DHT22;23278;52.110;6.050;2023-07-13T05:18:42;15.10;99.90
37412;DHT22;23278;52.110;6.050;2023-07-13T05:21:10;15.10;99.90
37412;DHT22;23278;52.110;6.050;2023-07-13T05:23:36;15.20;99.90
37412;DHT22;23278;52.110;6.050;2023-07-13T05:26:03;15.20;99.90
37412;DHT22;23278;52.110;6.050;2023-07-13T05:28:31;15.30;99.90
37412;DHT22;23278;52.110;6.050;2023-07-13T05:30:57;15.40;99.90
37412;DHT22;23278;52.110;6.050;2023-07-13T05:33:23;15.40;99.90
37412;DHT22;23278;52.110;6.050;2023-07-13T05:35:50;15.50;99.90
37412;DHT22;23278;52.110;6.050;2023-07-13T05:38:16;15.50;99.90
37412;DHT22;23278;52.110;6.050;2023-07-13T05:40:45;15.60;99.90
37412;DHT22;23278;52.110;6.050;2023-07-13T05:43:12;15.70;99.90
37412;DHT22;23278;52.110;6.050;2023-07-13T05:45:38;15.80;99.90
37412;DHT22;23278;52.110;6.050;2023-07-13T05:48:05;15.90;99.90
37412;DHT22;23278;52.110;6.050;2023-07-13T05:50:31;16.10;99.90
37412;DHT22;23278;52.110;6.050;2023-07-13T05:52:57;16.20;99.90
37412;DHT22;23278;52.110;6.050;2023-07-13T05:55:23;16.30;99.90
37412;DHT22;23278;52.110;6.050;2023-07-13T05:57:49;16.30;99.90
37412;DHT22;23278;52.110;6.050;2023-07-13T06:00:15;16.30;99.90
37412;DHT22;23278;52.110;6.050;2023-07-13T06:02:41;16.30;99.90
37412;DHT22;23278;52.110;6.050;2023-07-13T06:05:08;16.30;99.90
37412;DHT22;23278;52.110;6.050;2023-07-13T06:07:34;16.40;99.90
37412;DHT22;23278;52.110;6.050;2023-07-13T06:10:00;16.50;99.90
37412;DHT22;23278;52.110;6.050;2023-07-13T06:12:27;16.60;99.90
37412;DHT22;23278;52.110;6.050;2023-07-13T06:14:53;16.60;99.90
37412;DHT22;23278;52.110;6.050;2023-07-13T06:17:19;16.70;99.90
37412;DHT22;23278;52.110;6.050;2023-07-13T06:19:44;16.70;99.90
37412;DHT22;23278;52.110;6.050;2023-07-13T06:22:10;16.80;99.90
37412;DHT22;23278;52.110;6.050;2023-07-13T06:24:36;16.80;99.90
37412;DHT22;23278;52.110;6.050;2023-07-13T06:27:02;16.80;99.90
37412;DHT22;23278;52.110;6.050;2023-07-13T06:29:29;16.80;99.90
37412;DHT22;23278;52.110;6.050;2023-07-13T06:31:54;16.90;99.90
37412;DHT22;23278;52.110;6.050;2023-07-13T06:34:20;17.00;99.90
37412;DHT22;23278;52.110;6.050;2023-07-13T06:36:46;17.00;99.90
37412;DHT22;23278;52.110;6.050;2023-07-13T06:39:12;17.00;99.90
37412;DHT22;23278;52.110;6.050;2023-07-13T06:41:38;17.00;99.90
37412;DHT22;23278;52.110;6.050;2023-07-13T06:44:09;17.10;99.90
37412;DHT22;23278;52.110;6.050;2023-07-13T06:46:35;17.20;99.90
37412;DHT22;23278;52.110;6.050;2023-07-13T06:49:01;17.30;99.90
37412;DHT22;23278;52.110;6.050;2023-07-13T06:51:27;17.40;99.90
37412;DHT22;23278;52.110;6.050;2023-07-13T06:53:53;17.40;99.90
37412;DHT22;23278;52.110;6.050;2023-07-13T06:56:20;17.50;99.90
37412;DHT22;23278;52.110;6.050;2023-07-13T06:58:45;17.70;99.90
37412;DHT22;23278;52.110;6.050;2023-07-13T07:01:11;18.00;99.90
37412;DHT22;23278;52.110;6.050;2023-07-13T07:03:37;18.30;99.90
37412;DHT22;23278;52.110;6.050;2023-07-13T07:06:13;18.50;99.90
37412;DHT22;23278;52.110;6.050;2023-07-13T07:08:40;18.60;99.90
37412;DHT22;23278;52.110;6.050;2023-07-13T07:11:11;18.70;99.90
37412;DHT22;23278;52.110;6.050;2023-07-13T07:13:37;18.70;99.80
37412;DHT22;23278;52.110;6.050;2023-07-13T07:16:03;18.80;99.60
37412;DHT22;23278;52.110;6.050;2023-07-13T07:18:29;18.80;99.50
37412;DHT22;23278;52.110;6.050;2023-07-13T07:20:55;18.80;99.50
37412;DHT22;23278;52.110;6.050;2023-07-13T07:23:22;18.80;99.80
37412;DHT22;23278;52.110;6.050;2023-07-13T07:25:48;18.90;99.80
37412;DHT22;23278;52.110;6.050;2023-07-13T07:28:15;19.00;99.70
37412;DHT22;23278;52.110;6.050;2023-07-13T07:30:45;19.40;99.20
37412;DHT22;23278;52.110;6.050;2023-07-13T07:33:11;19.70;98.60
37412;DHT22;23278;52.110;6.050;2023-07-13T07:35:37;20.00;97.90
37412;DHT22;23278;52.110;6.050;2023-07-13T07:38:03;20.40;97.10
37412;DHT22;23278;52.110;6.050;2023-07-13T07:40:29;20.50;96.20
37412;DHT22;23278;52.110;6.050;2023-07-13T07:42:55;20.60;95.70
37412;DHT22;23278;52.110;6.050;2023-07-13T07:45:21;20.70;95.20
37412;DHT22;23278;52.110;6.050;2023-07-13T07:47:47;20.70;95.20
37412;DHT22;23278;52.110;6.050;2023-07-13T07:50:13;20.70;94.80
37412;DHT22;23278;52.110;6.050;2023-07-13T07:52:39;20.60;94.80
37412;DHT22;23278;52.110;6.050;2023-07-13T07:55:06;20.50;94.80
37412;DHT22;23278;52.110;6.050;2023-07-13T07:57:32;20.40;95.00
37412;DHT22;23278;52.110;6.050;2023-07-13T07:59:58;20.20;95.10
37412;DHT22;23278;52.110;6.050;2023-07-13T08:02:25;20.00;95.40
37412;DHT22;23278;52.110;6.050;2023-07-13T08:04:51;19.90;96.00
37412;DHT22;23278;52.110;6.050;2023-07-13T08:07:17;19.90;96.20
37412;DHT22;23278;52.110;6.050;2023-07-13T08:09:43;20.00;96.50
37412;DHT22;23278;52.110;6.050;2023-07-13T08:12:09;20.20;96.20
37412;DHT22;23278;52.110;6.050;2023-07-13T08:14:35;20.40;95.50
37412;DHT22;23278;52.110;6.050;2023-07-13T08:17:01;20.40;94.80
37412;DHT22;23278;52.110;6.050;2023-07-13T08:19:27;20.30;94.90
37412;DHT22;23278;52.110;6.050;2023-07-13T08:21:53;20.40;95.00
37412;DHT22;23278;52.110;6.050;2023-07-13T08:24:22;20.60;94.40
37412;DHT22;23278;52.110;6.050;2023-07-13T08:26:48;20.70;93.90
37412;DHT22;23278;52.110;6.050;2023-07-13T08:29:16;20.70;93.50
37412;DHT22;23278;52.110;6.050;2023-07-13T08:31:41;20.90;93.20
37412;DHT22;23278;52.110;6.050;2023-07-13T08:34:07;20.80;93.30
37412;DHT22;23278;52.110;6.050;2023-07-13T08:36:33;20.70;93.60
37412;DHT22;23278;52.110;6.050;2023-07-13T08:38:59;20.90;93.30
37412;DHT22;23278;52.110;6.050;2023-07-13T08:41:25;21.20;93.00
37412;DHT22;23278;52.110;6.050;2023-07-13T08:43:56;21.40;92.40
37412;DHT22;23278;52.110;6.050;2023-07-13T08:46:36;21.50;91.40
37412;DHT22;23278;52.110;6.050;2023-07-13T08:49:13;21.60;90.40
37412;DHT22;23278;52.110;6.050;2023-07-13T08:54:44;22.00;88.60
37412;DHT22;23278;52.110;6.050;2023-07-13T08:57:16;22.20;87.30
37412;DHT22;23278;52.110;6.050;2023-07-13T08:59:43;22.30;85.20
37412;DHT22;23278;52.110;6.050;2023-07-13T09:02:34;22.10;85.20
37412;DHT22;23278;52.110;6.050;2023-07-13T09:05:17;21.50;90.10
37412;DHT22;23278;52.110;6.050;2023-07-13T09:08:21;20.70;94.30
37412;DHT22;23278;52.110;6.050;2023-07-13T09:10:58;20.20;96.60
37412;DHT22;23278;52.110;6.050;2023-07-13T09:13:37;20.00;97.80
37412;DHT22;23278;52.110;6.050;2023-07-13T09:16:05;20.10;98.30
37412;DHT22;23278;52.110;6.050;2023-07-13T09:18:42;20.10;98.40
37412;DHT22;23278;52.110;6.050;2023-07-13T09:21:15;20.30;98.00
37412;DHT22;23278;52.110;6.050;2023-07-13T09:23:42;20.40;97.30
37412;DHT22;23278;52.110;6.050;2023-07-13T09:26:21;20.70;97.00
37412;DHT22;23278;52.110;6.050;2023-07-13T09:29:21;21.10;96.30
37412;DHT22;23278;52.110;6.050;2023-07-13T09:31:54;21.30;95.30
37412;DHT22;23278;52.110;6.050;2023-07-13T09:34:21;21.90;93.50
37412;DHT22;23278;52.110;6.050;2023-07-13T09:36:47;22.30;91.90
37412;DHT22;23278;52.110;6.050;2023-07-13T09:39:25;22.50;90.30
37412;DHT22;23278;52.110;6.050;2023-07-13T09:42:17;22.50;89.30
37412;DHT22;23278;52.110;6.050;2023-07-13T09:44:59;22.40;86.20
37412;DHT22;23278;52.110;6.050;2023-07-13T09:47:28;22.20;85.00
37412;DHT22;23278;52.110;6.050;2023-07-13T09:52:26;21.80;81.00
37412;DHT22;23278;52.110;6.050;2023-07-13T09:54:54;21.70;82.00
37412;DHT22;23278;52.110;6.050;2023-07-13T09:57:27;22.10;78.70
37412;DHT22;23278;52.110;6.050;2023-07-13T09:59:55;22.50;73.40
37412;DHT22;23278;52.110;6.050;2023-07-13T10:02:24;23.30;71.30
37412;DHT22;23278;52.110;6.050;2023-07-13T10:04:57;24.20;67.30
37412;DHT22;23278;52.110;6.050;2023-07-13T10:07:24;25.20;64.40
37412;DHT22;23278;52.110;6.050;2023-07-13T10:09:54;26.00;62.00
37412;DHT22;23278;52.110;6.050;2023-07-13T10:12:22;26.20;58.90
37412;DHT22;23278;52.110;6.050;2023-07-13T10:14:52;26.00;59.60
37412;DHT22;23278;52.110;6.050;2023-07-13T10:17:29;26.30;59.50
37412;DHT22;23278;52.110;6.050;2023-07-13T10:20:04;26.50;57.70
37412;DHT22;23278;52.110;6.050;2023-07-13T10:22:49;26.50;57.20
37412;DHT22;23278;52.110;6.050;2023-07-13T10:25:25;26.50;56.70
37412;DHT22;23278;52.110;6.050;2023-07-13T10:28:05;27.00;55.70
37412;DHT22;23278;52.110;6.050;2023-07-13T10:30:41;27.50;54.00
37412;DHT22;23278;52.110;6.050;2023-07-13T10:33:12;27.80;52.90
37412;DHT22;23278;52.110;6.050;2023-07-13T10:35:41;28.30;52.10
37412;DHT22;23278;52.110;6.050;2023-07-13T10:38:12;29.00;51.30
37412;DHT22;23278;52.110;6.050;2023-07-13T10:40:43;29.70;50.70
37412;DHT22;23278;52.110;6.050;2023-07-13T10:43:22;29.70;49.90
37412;DHT22;23278;52.110;6.050;2023-07-13T10:45:51;29.80;47.70
37412;DHT22;23278;52.110;6.050;2023-07-13T10:48:17;29.30;47.90
37412;DHT22;23278;52.110;6.050;2023-07-13T10:50:46;29.90;46.70
37412;DHT22;23278;52.110;6.050;2023-07-13T10:53:28;29.80;47.40
37412;DHT22;23278;52.110;6.050;2023-07-13T10:55:59;28.00;68.30
37412;DHT22;23278;52.110;6.050;2023-07-13T10:58:33;25.10;89.60
37412;DHT22;23278;52.110;6.050;2023-07-13T11:01:14;23.50;98.90
37412;DHT22;23278;52.110;6.050;2023-07-13T11:08:51;22.40;99.90
37412;DHT22;23278;52.110;6.050;2023-07-13T11:18:52;20.20;99.90
37412;DHT22;23278;52.110;6.050;2023-07-13T11:21:21;19.90;99.90
37412;DHT22;23278;52.110;6.050;2023-07-13T11:23:55;19.60;99.90
37412;DHT22;23278;52.110;6.050;2023-07-13T11:31:59;19.80;99.90
37412;DHT22;23278;52.110;6.050;2023-07-13T11:34:31;22.00;99.90
37412;DHT22;23278;52.110;6.050;2023-07-13T11:37:00;23.20;99.90
37412;DHT22;23278;52.110;6.050;2023-07-13T11:39:35;22.40;99.90
37412;DHT22;23278;52.110;6.050;2023-07-13T11:42:06;21.60;99.90
37412;DHT22;23278;52.110;6.050;2023-07-13T11:44:34;21.00;99.90
37412;DHT22;23278;52.110;6.050;2023-07-13T11:47:10;20.70;99.90
37412;DHT22;23278;52.110;6.050;2023-07-13T11:49:48;20.50;99.90
37412;DHT22;23278;52.110;6.050;2023-07-13T11:52:16;20.50;99.90
37412;DHT22;23278;52.110;6.050;2023-07-13T11:54:54;20.80;99.90
37412;DHT22;23278;52.110;6.050;2023-07-13T11:57:30;21.40;99.90
37412;DHT22;23278;52.110;6.050;2023-07-13T12:00:28;23.50;99.90
37412;DHT22;23278;52.110;6.050;2023-07-13T12:02:58;26.70;98.60
37412;DHT22;23278;52.110;6.050;2023-07-13T12:05:25;28.70;93.00
37412;DHT22;23278;52.110;6.050;2023-07-13T12:07:51;30.40;87.70
37412;DHT22;23278;52.110;6.050;2023-07-13T12:10:22;31.30;82.50
37412;DHT22;23278;52.110;6.050;2023-07-13T12:12:56;30.60;74.70
37412;DHT22;23278;52.110;6.050;2023-07-13T12:15:26;29.00;77.40
37412;DHT22;23278;52.110;6.050;2023-07-13T12:17:54;27.10;83.60
37412;DHT22;23278;52.110;6.050;2023-07-13T12:20:27;25.70;87.40
37412;DHT22;23278;52.110;6.050;2023-07-13T12:22:56;24.80;90.70
37412;DHT22;23278;52.110;6.050;2023-07-13T12:25:23;24.10;91.50
37412;DHT22;23278;52.110;6.050;2023-07-13T12:27:51;23.70;91.80
37412;DHT22;23278;52.110;6.050;2023-07-13T12:30:32;23.40;92.60
37412;DHT22;23278;52.110;6.050;2023-07-13T12:33:07;23.30;92.70
37412;DHT22;23278;52.110;6.050;2023-07-13T12:35:49;23.30;92.80
37412;DHT22;23278;52.110;6.050;2023-07-13T12:38:18;23.10;92.80
37412;DHT22;23278;52.110;6.050;2023-07-13T12:40:49;22.70;92.80
37412;DHT22;23278;52.110;6.050;2023-07-13T12:43:16;22.20;96.30
37412;DHT22;23278;52.110;6.050;2023-07-13T12:48:23;20.40;99.90
37412;DHT22;23278;52.110;6.050;2023-07-13T12:50:49;20.00;99.90
37412;DHT22;23278;52.110;6.050;2023-07-13T12:53:28;19.80;99.90
37412;DHT22;23278;52.110;6.050;2023-07-13T12:55:56;19.80;99.90
37412;DHT22;23278;52.110;6.050;2023-07-13T12:58:37;20.90;99.90
37412;DHT22;23278;52.110;6.050;2023-07-13T13:01:04;22.90;99.90
37412;DHT22;23278;52.110;6.050;2023-07-13T13:03:46;22.40;99.90
37412;DHT22;23278;52.110;6.050;2023-07-13T13:09:00;22.20;99.90
37412;DHT22;23278;52.110;6.050;2023-07-13T13:11:30;23.20;99.90
37412;DHT22;23278;52.110;6.050;2023-07-13T13:13:56;22.90;99.90
37412;DHT22;23278;52.110;6.050;2023-07-13T13:18:51;22.40;99.90
37412;DHT22;23278;52.110;6.050;2023-07-13T13:21:18;22.20;99.90
37412;DHT22;23278;52.110;6.050;2023-07-13T13:23:45;22.60;99.90
37412;DHT22;23278;52.110;6.050;2023-07-13T13:26:13;22.80;99.90
37412;DHT22;23278;52.110;6.050;2023-07-13T13:28:42;23.00;99.90
37412;DHT22;23278;52.110;6.050;2023-07-13T13:31:10;25.20;98.10
37412;DHT22;23278;52.110;6.050;2023-07-13T13:33:40;27.70;93.10
37412;DHT22;23278;52.110;6.050;2023-07-13T13:36:19;29.80;85.80
37412;DHT22;23278;52.110;6.050;2023-07-13T13:38:48;30.80;74.00
37412;DHT22;23278;52.110;6.050;2023-07-13T13:41:14;29.70;72.90
37412;DHT22;23278;52.110;6.050;2023-07-13T13:43:42;30.00;71.80
37412;DHT22;23278;52.110;6.050;2023-07-13T13:46:21;31.50;69.20
37412;DHT22;23278;52.110;6.050;2023-07-13T13:48:51;33.20;62.00
37412;DHT22;23278;52.110;6.050;2023-07-13T13:51:17;34.30;57.40
37412;DHT22;23278;52.110;6.050;2023-07-13T13:53:45;35.20;54.80
37412;DHT22;23278;52.110;6.050;2023-07-13T13:56:12;35.90;53.20
37412;DHT22;23278;52.110;6.050;2023-07-13T13:58:38;36.30;49.50
37412;DHT22;23278;52.110;6.050;2023-07-13T14:01:05;36.50;48.00
37412;DHT22;23278;52.110;6.050;2023-07-13T14:03:34;36.80;47.20
37412;DHT22;23278;52.110;6.050;2023-07-13T14:06:00;37.00;47.30
37412;DHT22;23278;52.110;6.050;2023-07-13T14:08:26;37.20;45.80
37412;DHT22;23278;52.110;6.050;2023-07-13T14:10:54;37.20;44.60
37412;DHT22;23278;52.110;6.050;2023-07-13T14:13:28;37.60;44.00
37412;DHT22;23278;52.110;6.050;2023-07-13T14:15:56;37.90;42.60
37412;DHT22;23278;52.110;6.050;2023-07-13T14:18:22;37.80;43.50
37412;DHT22;23278;52.110;6.050;2023-07-13T14:20:49;38.40;43.10
37412;DHT22;23278;52.110;6.050;2023-07-13T14:23:18;38.90;42.00
37412;DHT22;23278;52.110;6.050;2023-07-13T14:25:45;39.20;40.00
37412;DHT22;23278;52.110;6.050;2023-07-13T14:28:23;39.10;41.20
37412;DHT22;23278;52.110;6.050;2023-07-13T14:30:50;39.40;40.30
37412;DHT22;23278;52.110;6.050;2023-07-13T14:33:16;39.80;39.70
37412;DHT22;23278;52.110;6.050;2023-07-13T14:35:42;38.50;40.10
37412;DHT22;23278;52.110;6.050;2023-07-13T14:38:19;36.40;41.40
37412;DHT22;23278;52.110;6.050;2023-07-13T14:40:46;36.60;41.00
37412;DHT22;23278;52.110;6.050;2023-07-13T14:43:14;36.80;41.20
37412;DHT22;23278;52.110;6.050;2023-07-13T14:45:43;35.60;42.90
37412;DHT22;23278;52.110;6.050;2023-07-13T14:48:18;34.20;44.60
37412;DHT22;23278;52.110;6.050;2023-07-13T14:50:45;35.20;43.80
37412;DHT22;23278;52.110;6.050;2023-07-13T14:53:13;36.60;41.90
37412;DHT22;23278;52.110;6.050;2023-07-13T14:55:39;36.50;41.80
37412;DHT22;23278;52.110;6.050;2023-07-13T14:58:06;36.30;41.30
37412;DHT22;23278;52.110;6.050;2023-07-13T15:00:33;36.40;41.10
37412;DHT22;23278;52.110;6.050;2023-07-13T15:02:59;37.60;39.80
37412;DHT22;23278;52.110;6.050;2023-07-13T15:05:28;38.50;39.10
37412;DHT22;23278;52.110;6.050;2023-07-13T15:07:58;39.20;37.20
37412;DHT22;23278;52.110;6.050;2023-07-13T15:10:28;39.40;37.10
37412;DHT22;23278;52.110;6.050;2023-07-13T15:12:58;38.70;36.60
37412;DHT22;23278;52.110;6.050;2023-07-13T15:15:24;37.70;37.60
37412;DHT22;23278;52.110;6.050;2023-07-13T15:17:50;37.00;38.50
37412;DHT22;23278;52.110;6.050;2023-07-13T15:22:51;35.10;39.50
37412;DHT22;23278;52.110;6.050;2023-07-13T15:25:19;33.90;41.00
37412;DHT22;23278;52.110;6.050;2023-07-13T15:27:45;32.70;42.40
37412;DHT22;23278;52.110;6.050;2023-07-13T15:30:12;31.70;43.80
37412;DHT22;23278;52.110;6.050;2023-07-13T15:32:38;30.70;44.70
37412;DHT22;23278;52.110;6.050;2023-07-13T15:35:09;30.90;45.00
37412;DHT22;23278;52.110;6.050;2023-07-13T15:37:39;30.80;45.30
37412;DHT22;23278;52.110;6.050;2023-07-13T15:40:13;30.10;46.00
37412;DHT22;23278;52.110;6.050;2023-07-13T15:42:45;29.60;47.10
37412;DHT22;23278;52.110;6.050;2023-07-13T15:45:23;28.90;47.30
37412;DHT22;23278;52.110;6.050;2023-07-13T15:47:51;28.50;47.90
37412;DHT22;23278;52.110;6.050;2023-07-13T15:50:19;28.70;48.10
37412;DHT22;23278;52.110;6.050;2023-07-13T15:52:49;29.70;46.70
37412;DHT22;23278;52.110;6.050;2023-07-13T15:55:16;30.20;45.60
37412;DHT22;23278;52.110;6.050;2023-07-13T15:57:47;30.00;46.50
37412;DHT22;23278;52.110;6.050;2023-07-13T16:02:48;28.70;47.70
37412;DHT22;23278;52.110;6.050;2023-07-13T16:05:18;28.00;48.90
37412;DHT22;23278;52.110;6.050;2023-07-13T16:07:46;27.30;50.80
37412;DHT22;23278;52.110;6.050;2023-07-13T16:10:36;26.80;51.10
37412;DHT22;23278;52.110;6.050;2023-07-13T16:13:15;26.50;51.60
37412;DHT22;23278;52.110;6.050;2023-07-13T16:15:41;26.10;52.30
37412;DHT22;23278;52.110;6.050;2023-07-13T16:18:13;25.80;52.60
37412;DHT22;23278;52.110;6.050;2023-07-13T16:20:43;25.60;53.40
37412;DHT22;23278;52.110;6.050;2023-07-13T16:23:12;25.50;54.10